Time;durP1;ratioP1;P1;durP2;ratioP2;P2;SDS_P1;SDS_P2;PMS_P1;PMS_P2;Temp;Humidity;BMP_temperature;BMP_pressure;BME280_temperature;BME280_humidity;BME280_pressure;Samples;Min_cycle;Max_cycle;Signal;HPM_P1;HPM_P2
2021/05/25 00:00:55;;;;;;;10.20;3.85;;;;;;;;;;4964761;28;20054;-61
2021/05/25 00:03:21;;;;;;;6.15;3.15;;;;;;;;;;4965529;28;20138;-61
2021/05/25 00:05:47;;;;;;;5.75;3.17;;;;;;;;;;4967298;28;20486;-62
2021/05/25 00:08:13;;;;;;;12.15;3.50;;;;;;;;;;4965289;28;20088;-61
2021/05/25 00:10:40;;;;;;;7.25;3.60;;;;;;;;;;4966898;28;20039;-60
2021/05/25 00:13:09;;;;;;;6.45;3.50;;;;;;;;;;4966573;28;20121;-61
2021/05/25 00:15:37;;;;;;;4.63;3.03;;;;;;;;;;4962037;28;20989;-60
2021/05/25 00:18:05;;;;;;;4.03;2.35;;;;;;;;;;4966261;28;20051;-60
2021/05/25 00:20:32;;;;;;;6.65;2.95;;;;;;;;;;4965778;28;20037;-62
2021/05/25 00:23:02;;;;;;;8.48;2.95;;;;;;;;;;4980284;28;20023;-61
2021/05/25 00:25:32;;;;;;;5.88;2.67;;;;;;;;;;4978247;28;20058;-63
2021/05/25 00:27:57;;;;;;;14.25;3.20;;;;;;;;;;4965272;28;20065;-62
2021/05/25 00:30:23;;;;;;;5.30;2.97;;;;;;;;;;4966701;28;20081;-61
2021/05/25 00:32:51;;;;;;;6.85;2.92;;;;;;;;;;4966833;28;20421;-61
2021/05/25 00:35:17;;;;;;;7.53;2.83;;;;;;;;;;4981985;28;20042;-59
2021/05/25 00:37:46;;;;;;;5.38;3.05;;;;;;;;;;4967922;28;20030;-59
2021/05/25 00:40:14;;;;;;;6.57;2.47;;;;;;;;;;4935046;28;20030;-58
2021/05/25 00:42:45;;;;;;;5.00;2.85;;;;;;;;;;4961310;28;20031;-58
2021/05/25 00:45:10;;;;;;;4.82;2.70;;;;;;;;;;4963693;28;20486;-58
2021/05/25 00:47:39;;;;;;;4.97;2.55;;;;;;;;;;4965802;28;20038;-59
2021/05/25 00:50:14;;;;;;;8.95;3.05;;;;;;;;;;4948154;28;20069;-59
2021/05/25 00:52:44;;;;;;;8.63;2.83;;;;;;;;;;4965845;28;20038;-60
2021/05/25 00:55:12;;;;;;;6.60;2.97;;;;;;;;;;4966602;28;20041;-60
2021/05/25 00:57:37;;;;;;;7.70;2.67;;;;;;;;;;4964864;28;20018;-59
2021/05/25 01:00:06;;;;;;;7.53;2.75;;;;;;;;;;4965907;28;20041;-58
2021/05/25 01:02:33;;;;;;;6.95;3.10;;;;;;;;;;4967322;28;20022;-59
2021/05/25 01:05:01;;;;;;;6.18;3.08;;;;;;;;;;4971231;28;20041;-59
2021/05/25 01:07:30;;;;;;;5.90;3.60;;;;;;;;;;4969996;28;20082;-58
2021/05/25 01:09:58;;;;;;;7.57;3.63;;;;;;;;;;4971681;28;20038;-58
2021/05/25 01:12:26;;;;;;;4.95;3.08;;;;;;;;;;4968818;28;20039;-59
2021/05/25 01:14:56;;;;;;;6.82;3.30;;;;;;;;;;4969695;28;20030;-57
2021/05/25 01:17:25;;;;;;;5.80;2.88;;;;;;;;;;4971123;28;20037;-58
2021/05/25 01:19:50;;;;;;;7.07;3.08;;;;;;;;;;4970958;28;20049;-58
2021/05/25 01:22:16;;;;;;;6.05;3.22;;;;;;;;;;4970234;28;22013;-58
2021/05/25 01:24:43;;;;;;;6.15;3.10;;;;;;;;;;4955597;28;20034;-58
2021/05/25 01:27:12;;;;;;;5.78;3.35;;;;;;;;;;4968989;28;20377;-58
2021/05/25 01:29:40;;;;;;;5.40;2.92;;;;;;;;;;4955759;28;20113;-57
2021/05/25 01:32:08;;;;;;;8.00;3.45;;;;;;;;;;4970770;28;20038;-58
2021/05/25 01:34:35;;;;;;;7.88;3.90;;;;;;;;;;4971808;28;20034;-58
2021/05/25 01:37:03;;;;;;;6.20;3.50;;;;;;;;;;4972328;28;20076;-58
2021/05/25 01:39:29;;;;;;;6.47;3.33;;;;;;;;;;4964050;28;20029;-58
2021/05/25 01:41:55;;;;;;;6.47;3.83;;;;;;;;;;4954854;28;20077;-57
2021/05/25 01:44:23;;;;;;;8.80;3.88;;;;;;;;;;4969220;28;20038;-57
2021/05/25 01:46:51;;;;;;;10.98;3.92;;;;;;;;;;4968821;28;20181;-60
2021/05/25 01:49:19;;;;;;;8.57;3.85;;;;;;;;;;4970337;28;21025;-58
2021/05/25 01:51:48;;;;;;;7.75;3.55;;;;;;;;;;4969026;28;20065;-58
2021/05/25 01:54:17;;;;;;;5.30;3.53;;;;;;;;;;4968335;28;20391;-58
2021/05/25 01:56:45;;;;;;;5.88;3.50;;;;;;;;;;4964143;28;20119;-58
2021/05/25 01:59:10;;;;;;;8.90;3.60;;;;;;;;;;4985910;28;20105;-58
2021/05/25 02:01:36;;;;;;;12.00;4.03;;;;;;;;;;4953089;28;20085;-59
2021/05/25 02:04:06;;;;;;;14.02;4.63;;;;;;;;;;4952002;28;20469;-59
2021/05/25 02:06:32;;;;;;;10.68;4.18;;;;;;;;;;4969659;28;20045;-58
2021/05/25 02:08:57;;;;;;;7.60;3.90;;;;;;;;;;4977059;28;20135;-58
2021/05/25 02:11:25;;;;;;;13.55;5.47;;;;;;;;;;4970209;28;20168;-57
2021/05/25 02:13:50;;;;;;;11.65;4.68;;;;;;;;;;4966718;28;20035;-58
2021/05/25 02:16:18;;;;;;;10.30;4.13;;;;;;;;;;4968277;28;20066;-58
2021/05/25 02:18:48;;;;;;;13.98;4.90;;;;;;;;;;4984137;28;20150;-59
2021/05/25 02:21:15;;;;;;;8.75;4.00;;;;;;;;;;4970939;28;20057;-58
2021/05/25 02:23:41;;;;;;;15.82;4.38;;;;;;;;;;4967549;28;21309;-58
2021/05/25 02:26:09;;;;;;;10.30;4.28;;;;;;;;;;4982790;28;20041;-58
2021/05/25 02:28:36;;;;;;;7.03;2.58;;;;;;;;;;4968668;28;20025;-60
2021/05/25 02:31:04;;;;;;;6.68;3.05;;;;;;;;;;4969696;28;20077;-60
2021/05/25 02:33:31;;;;;;;4.25;1.95;;;;;;;;;;4968829;28;20852;-58
2021/05/25 02:36:00;;;;;;;3.80;1.88;;;;;;;;;;4969494;28;20088;-58
2021/05/25 02:38:26;;;;;;;3.28;1.73;;;;;;;;;;4966619;28;20022;-59
2021/05/25 02:40:51;;;;;;;3.80;1.60;;;;;;;;;;4985623;28;20109;-58
2021/05/25 02:43:21;;;;;;;1.58;1.45;;;;;;;;;;4983618;28;20030;-58
2021/05/25 02:45:47;;;;;;;5.75;1.30;;;;;;;;;;4968717;28;20112;-58
2021/05/25 02:48:15;;;;;;;4.63;1.13;;;;;;;;;;4951615;28;20042;-59
2021/05/25 02:50:40;;;;;;;2.10;1.17;;;;;;;;;;4953499;28;22271;-59
2021/05/25 02:53:06;;;;;;;2.03;1.48;;;;;;;;;;4969921;28;20038;-59
2021/05/25 02:55:36;;;;;;;4.60;1.20;;;;;;;;;;4970231;28;20030;-58
2021/05/25 02:58:05;;;;;;;5.35;1.30;;;;;;;;;;4951323;28;20026;-59
2021/05/25 03:00:34;;;;;;;3.13;1.13;;;;;;;;;;4966769;28;20030;-58
2021/05/25 03:03:02;;;;;;;0.90;0.68;;;;;;;;;;4968189;28;20030;-59
2021/05/25 03:05:33;;;;;;;2.28;0.85;;;;;;;;;;4968478;28;20393;-58
2021/05/25 03:07:59;;;;;;;4.57;0.90;;;;;;;;;;4984883;28;20030;-58
2021/05/25 03:10:29;;;;;;;2.35;0.88;;;;;;;;;;4968510;28;20022;-58
2021/05/25 03:12:59;;;;;;;1.52;0.80;;;;;;;;;;4968471;28;20038;-60
2021/05/25 03:15:30;;;;;;;4.32;0.80;;;;;;;;;;4970386;28;20030;-60
2021/05/25 03:17:58;;;;;;;3.33;1.23;;;;;;;;;;4982635;28;20109;-60
2021/05/25 03:20:26;;;;;;;1.52;0.95;;;;;;;;;;4969514;28;20026;-60
2021/05/25 03:22:54;;;;;;;1.50;0.75;;;;;;;;;;4975076;28;20156;-57
2021/05/25 03:25:21;;;;;;;2.65;1.23;;;;;;;;;;4970177;28;20038;-57
2021/05/25 03:27:49;;;;;;;2.88;0.80;;;;;;;;;;4967494;28;20209;-58
2021/05/25 03:30:15;;;;;;;3.40;1.00;;;;;;;;;;4968789;28;20823;-60
2021/05/25 03:32:48;;;;;;;2.72;0.95;;;;;;;;;;4967936;28;20534;-58
2021/05/25 03:35:17;;;;;;;1.80;1.13;;;;;;;;;;4967325;28;20030;-58
2021/05/25 03:37:45;;;;;;;3.15;0.90;;;;;;;;;;4968414;28;20029;-58
2021/05/25 03:40:11;;;;;;;1.00;0.82;;;;;;;;;;4967274;28;20030;-58
2021/05/25 03:42:38;;;;;;;6.65;1.08;;;;;;;;;;4968674;28;20049;-59
2021/05/25 03:45:06;;;;;;;3.45;1.05;;;;;;;;;;4964480;28;20232;-59
2021/05/25 03:47:31;;;;;;;1.63;0.57;;;;;;;;;;4963481;28;22154;-59
2021/05/25 03:50:07;;;;;;;3.78;0.75;;;;;;;;;;4967526;28;20030;-59
2021/05/25 03:52:33;;;;;;;2.30;1.05;;;;;;;;;;4966585;28;20525;-59
2021/05/25 03:55:00;;;;;;;1.50;0.77;;;;;;;;;;4967589;28;20022;-59
2021/05/25 03:59:56;;;;;;;3.20;1.00;;;;;;;;;;4967859;28;20050;-59
2021/05/25 04:02:24;;;;;;;0.68;0.60;;;;;;;;;;4966591;28;20602;-58
2021/05/25 04:04:52;;;;;;;3.53;1.33;;;;;;;;;;4966142;28;20256;-59
2021/05/25 04:07:17;;;;;;;1.23;0.77;;;;;;;;;;4983159;28;20126;-59
2021/05/25 04:09:45;;;;;;;5.75;1.42;;;;;;;;;;4968693;28;20038;-60
2021/05/25 04:12:13;;;;;;;1.83;1.00;;;;;;;;;;4966496;28;20038;-59
2021/05/25 04:14:41;;;;;;;4.85;0.93;;;;;;;;;;4968574;28;20065;-59
2021/05/25 04:17:12;;;;;;;2.40;1.00;;;;;;;;;;4966558;28;20034;-60
2021/05/25 04:19:40;;;;;;;4.50;1.30;;;;;;;;;;4966513;28;20402;-59
2021/05/25 04:22:06;;;;;;;1.67;0.80;;;;;;;;;;4967204;28;20026;-59
2021/05/25 04:24:31;;;;;;;2.65;1.20;;;;;;;;;;4983795;28;20027;-59
2021/05/25 04:26:56;;;;;;;3.85;1.00;;;;;;;;;;4982769;28;20029;-59
2021/05/25 04:29:22;;;;;;;2.88;1.10;;;;;;;;;;4966827;28;20827;-59
2021/05/25 04:31:50;;;;;;;6.10;1.00;;;;;;;;;;4963160;28;20093;-59
2021/05/25 04:34:15;;;;;;;6.32;1.10;;;;;;;;;;4968650;28;20026;-59
2021/05/25 04:36:40;;;;;;;6.13;1.10;;;;;;;;;;4966907;28;20761;-58
2021/05/25 04:39:08;;;;;;;1.90;1.13;;;;;;;;;;4967497;28;20057;-59
2021/05/25 04:41:37;;;;;;;1.10;0.90;;;;;;;;;;4965530;28;20034;-58
2021/05/25 04:44:02;;;;;;;8.52;1.17;;;;;;;;;;4965817;28;20739;-57
2021/05/25 04:46:33;;;;;;;2.08;1.00;;;;;;;;;;4956228;28;20038;-58
2021/05/25 04:48:59;;;;;;;5.90;1.50;;;;;;;;;;4982113;28;20031;-57
2021/05/25 04:51:24;;;;;;;3.35;1.23;;;;;;;;;;4966492;28;20041;-58
2021/05/25 04:53:49;;;;;;;2.25;0.95;;;;;;;;;;4982666;28;20031;-58
2021/05/25 04:56:17;;;;;;;3.30;0.95;;;;;;;;;;4967445;28;20046;-57
2021/05/25 04:58:47;;;;;;;3.47;0.85;;;;;;;;;;4965521;28;20039;-59
2021/05/25 05:01:15;;;;;;;3.28;1.20;;;;;;;;;;4967637;28;20041;-59
2021/05/25 05:03:43;;;;;;;0.88;0.50;;;;;;;;;;4957589;28;21008;-58
2021/05/25 05:06:11;;;;;;;1.98;0.93;;;;;;;;;;4951060;28;20585;-58
2021/05/25 05:08:36;;;;;;;4.82;0.90;;;;;;;;;;4946818;28;20027;-58
2021/05/25 05:11:02;;;;;;;0.90;0.77;;;;;;;;;;4967563;28;20042;-58
2021/05/25 05:13:28;;;;;;;1.17;0.70;;;;;;;;;;4962138;28;20054;-58
2021/05/25 05:15:55;;;;;;;1.08;0.90;;;;;;;;;;4972344;28;20038;-57
2021/05/25 05:18:23;;;;;;;3.75;1.00;;;;;;;;;;4965428;28;20106;-58
2021/05/25 05:20:53;;;;;;;4.35;1.23;;;;;;;;;;4966941;28;20118;-58
2021/05/25 05:23:19;;;;;;;1.67;1.10;;;;;;;;;;4967250;28;20034;-58
2021/05/25 05:25:46;;;;;;;0.93;0.85;;;;;;;;;;4983167;28;20061;-58
2021/05/25 05:28:13;;;;;;;2.97;1.30;;;;;;;;;;4964236;28;20512;-58
2021/05/25 05:30:43;;;;;;;4.53;1.40;;;;;;;;;;4964721;28;20490;-59
2021/05/25 05:33:09;;;;;;;2.17;0.82;;;;;;;;;;4967087;28;20492;-59
2021/05/25 05:35:34;;;;;;;5.57;0.98;;;;;;;;;;4966049;28;20046;-59
2021/05/25 05:38:07;;;;;;;1.85;0.73;;;;;;;;;;4966686;28;20029;-59
2021/05/25 05:40:37;;;;;;;4.32;1.10;;;;;;;;;;4967004;28;20027;-59
2021/05/25 05:43:02;;;;;;;1.63;0.82;;;;;;;;;;4962304;28;20082;-58
2021/05/25 05:45:28;;;;;;;3.38;0.82;;;;;;;;;;4965843;28;20050;-59
2021/05/25 05:47:54;;;;;;;3.25;0.88;;;;;;;;;;4962164;28;20062;-58
2021/05/25 05:50:19;;;;;;;3.55;1.08;;;;;;;;;;4969077;28;20030;-59
2021/05/25 05:52:47;;;;;;;4.55;0.80;;;;;;;;;;4955611;28;20029;-59
2021/05/25 05:55:14;;;;;;;0.75;0.57;;;;;;;;;;4953071;28;20036;-59
2021/05/25 05:57:46;;;;;;;0.70;0.68;;;;;;;;;;4968624;28;20462;-58
2021/05/25 06:00:13;;;;;;;0.63;0.60;;;;;;;;;;4952764;28;20777;-59
2021/05/25 06:02:41;;;;;;;2.30;0.35;;;;;;;;;;4970161;28;20030;-59
2021/05/25 06:05:07;;;;;;;4.78;0.45;;;;;;;;;;4969060;28;20039;-59
2021/05/25 06:07:32;;;;;;;0.40;0.40;;;;;;;;;;4954419;28;20046;-59
2021/05/25 06:10:01;;;;;;;0.40;0.40;;;;;;;;;;4969617;28;20048;-59
2021/05/25 06:12:31;;;;;;;0.45;0.45;;;;;;;;;;4951111;28;20059;-60
2021/05/25 06:14:56;;;;;;;2.15;0.38;;;;;;;;;;4969524;28;20045;-59
2021/05/25 06:17:22;;;;;;;0.65;0.50;;;;;;;;;;4969632;28;20593;-59
2021/05/25 06:19:52;;;;;;;0.60;0.40;;;;;;;;;;4969144;28;22052;-59
2021/05/25 06:22:22;;;;;;;1.90;0.68;;;;;;;;;;4970680;28;20159;-59
2021/05/25 06:24:50;;;;;;;0.65;0.50;;;;;;;;;;4972050;28;20521;-59
2021/05/25 06:27:16;;;;;;;0.40;0.40;;;;;;;;;;4984180;28;20030;-59
2021/05/25 06:29:43;;;;;;;1.05;0.40;;;;;;;;;;4970417;28;20034;-58
2021/05/25 06:32:08;;;;;;;3.13;0.52;;;;;;;;;;4968752;28;20034;-59
2021/05/25 06:34:36;;;;;;;3.33;0.47;;;;;;;;;;4967046;28;20037;-59
2021/05/25 06:37:02;;;;;;;0.40;0.30;;;;;;;;;;4976417;28;20038;-59
2021/05/25 06:39:28;;;;;;;0.30;0.17;;;;;;;;;;4968277;28;20426;-59
2021/05/25 06:41:53;;;;;;;0.57;0.43;;;;;;;;;;4967886;28;20065;-59
2021/05/25 06:44:19;;;;;;;1.95;0.22;;;;;;;;;;4966127;28;21170;-59
2021/05/25 06:46:44;;;;;;;0.35;0.35;;;;;;;;;;4968880;28;20104;-59
2021/05/25 06:49:13;;;;;;;2.22;0.30;;;;;;;;;;4980805;28;20656;-60
2021/05/25 06:51:38;;;;;;;0.50;0.30;;;;;;;;;;4968005;28;20046;-59
2021/05/25 06:54:07;;;;;;;1.45;0.57;;;;;;;;;;4982481;28;20123;-57
2021/05/25 06:56:33;;;;;;;0.65;0.32;;;;;;;;;;4964416;28;20621;-58
2021/05/25 06:58:58;;;;;;;2.20;0.63;;;;;;;;;;4981962;28;20030;-58
2021/05/25 07:01:26;;;;;;;1.15;0.50;;;;;;;;;;4961862;28;20584;-58
2021/05/25 07:03:53;;;;;;;0.60;0.30;;;;;;;;;;4966478;28;20026;-58
2021/05/25 07:06:22;;;;;;;1.60;0.17;;;;;;;;;;4968214;28;20034;-59
2021/05/25 07:08:50;;;;;;;0.77;0.32;;;;;;;;;;4970722;28;20038;-58
2021/05/25 07:11:16;;;;;;;0.47;0.28;;;;;;;;;;4968707;28;20573;-59
2021/05/25 07:13:44;;;;;;;0.32;0.28;;;;;;;;;;4968923;28;21005;-59
2021/05/25 07:16:13;;;;;;;0.98;0.22;;;;;;;;;;4953556;28;20164;-60
2021/05/25 07:18:38;;;;;;;0.20;0.20;;;;;;;;;;4967042;28;20053;-59
2021/05/25 07:21:04;;;;;;;1.30;0.15;;;;;;;;;;4969525;28;21039;-59
2021/05/25 07:23:33;;;;;;;0.57;0.45;;;;;;;;;;4968416;28;20034;-59
2021/05/25 07:26:01;;;;;;;0.20;0.20;;;;;;;;;;4966744;28;20548;-60
2021/05/25 07:28:27;;;;;;;1.08;0.30;;;;;;;;;;4966779;28;20478;-61
2021/05/25 07:30:52;;;;;;;1.40;0.40;;;;;;;;;;4949371;28;20037;-61
2021/05/25 07:33:24;;;;;;;2.47;0.20;;;;;;;;;;4959637;28;20033;-60
2021/05/25 07:35:53;;;;;;;0.57;0.15;;;;;;;;;;4954293;28;20061;-61
2021/05/25 07:38:25;;;;;;;0.65;0.15;;;;;;;;;;4973101;28;20034;-61
2021/05/25 07:40:51;;;;;;;1.25;0.30;;;;;;;;;;4960058;28;20096;-60
2021/05/25 07:43:19;;;;;;;0.73;0.25;;;;;;;;;;4960563;28;21879;-60
2021/05/25 07:45:47;;;;;;;0.98;0.20;;;;;;;;;;4959749;28;20026;-60
2021/05/25 07:48:12;;;;;;;0.50;0.20;;;;;;;;;;4957703;28;20049;-60
2021/05/25 07:50:41;;;;;;;0.80;0.20;;;;;;;;;;4954486;28;20082;-60
2021/05/25 07:53:06;;;;;;;0.80;0.30;;;;;;;;;;4957733;28;20143;-60
2021/05/25 07:55:33;;;;;;;1.05;0.40;;;;;;;;;;4960329;28;20031;-60
2021/05/25 07:57:59;;;;;;;1.58;0.40;;;;;;;;;;4974949;28;20053;-60
2021/05/25 08:00:26;;;;;;;1.27;0.52;;;;;;;;;;4956547;28;20615;-60
2021/05/25 08:02:51;;;;;;;0.55;0.40;;;;;;;;;;4978243;28;20073;-60
2021/05/25 08:05:20;;;;;;;0.43;0.43;;;;;;;;;;4967655;28;20089;-60
2021/05/25 08:07:47;;;;;;;1.08;0.43;;;;;;;;;;4963258;28;20027;-60
2021/05/25 08:10:18;;;;;;;0.82;0.20;;;;;;;;;;4967575;28;20038;-61
2021/05/25 08:12:46;;;;;;;0.32;0.32;;;;;;;;;;4953062;28;21981;-61
2021/05/25 08:15:14;;;;;;;0.55;0.20;;;;;;;;;;4964800;28;20038;-59
2021/05/25 08:17:51;;;;;;;0.68;0.45;;;;;;;;;;4964457;28;20443;-61
2021/05/25 08:20:18;;;;;;;2.20;0.45;;;;;;;;;;4967223;28;20114;-61
2021/05/25 08:22:45;;;;;;;0.60;0.50;;;;;;;;;;4967180;28;20034;-61
2021/05/25 08:25:12;;;;;;;0.75;0.50;;;;;;;;;;4968585;28;20082;-60
2021/05/25 08:27:41;;;;;;;0.35;0.30;;;;;;;;;;4966591;28;20356;-60
2021/05/25 08:30:11;;;;;;;0.43;0.35;;;;;;;;;;4967874;28;20034;-60
2021/05/25 08:32:37;;;;;;;2.63;0.50;;;;;;;;;;4972158;28;20034;-59
2021/05/25 08:35:05;;;;;;;3.30;0.75;;;;;;;;;;4966815;28;21148;-62
2021/05/25 08:37:32;;;;;;;1.08;0.60;;;;;;;;;;4981300;28;20041;-61
2021/05/25 08:40:02;;;;;;;2.30;0.70;;;;;;;;;;4949041;28;20027;-61
2021/05/25 08:42:27;;;;;;;1.95;0.35;;;;;;;;;;4946146;28;20626;-60
2021/05/25 08:44:52;;;;;;;0.40;0.40;;;;;;;;;;4947214;28;20031;-60
2021/05/25 08:47:19;;;;;;;2.35;0.30;;;;;;;;;;4966737;28;20026;-61
2021/05/25 08:49:47;;;;;;;2.83;0.60;;;;;;;;;;4966410;28;20027;-58
2021/05/25 08:52:15;;;;;;;0.45;0.45;;;;;;;;;;4977457;28;20042;-59
2021/05/25 08:54:42;;;;;;;0.65;0.30;;;;;;;;;;4964864;28;20032;-58
2021/05/25 08:57:07;;;;;;;0.30;0.20;;;;;;;;;;4979636;28;20042;-58
2021/05/25 08:59:35;;;;;;;0.38;0.20;;;;;;;;;;4980886;28;20041;-59
2021/05/25 09:02:02;;;;;;;6.32;0.50;;;;;;;;;;4965230;28;20129;-59
2021/05/25 09:04:28;;;;;;;1.20;0.30;;;;;;;;;;4963243;28;20033;-59
2021/05/25 09:06:54;;;;;;;3.20;0.13;;;;;;;;;;4965371;28;20034;-60
2021/05/25 09:09:20;;;;;;;0.30;0.30;;;;;;;;;;4964934;28;20085;-59
2021/05/25 09:11:52;;;;;;;1.20;0.43;;;;;;;;;;4964151;28;20097;-58
2021/05/25 09:14:17;;;;;;;0.30;0.20;;;;;;;;;;4968055;28;20045;-60
2021/05/25 09:16:45;;;;;;;1.60;0.35;;;;;;;;;;4978988;28;20069;-59
2021/05/25 09:19:13;;;;;;;0.40;0.25;;;;;;;;;;4966360;28;20517;-60
2021/05/25 09:21:39;;;;;;;0.10;0.10;;;;;;;;;;4966496;28;20113;-59
2021/05/25 09:24:07;;;;;;;0.20;0.10;;;;;;;;;;4967566;28;20030;-60
2021/05/25 09:26:42;;;;;;;1.02;0.30;;;;;;;;;;4953387;28;20544;-60
2021/05/25 09:29:08;;;;;;;1.67;0.40;;;;;;;;;;4983562;28;20118;-60
2021/05/25 09:31:47;;;;;;;0.43;0.20;;;;;;;;;;4969891;28;20030;-60
2021/05/25 09:34:21;;;;;;;0.30;0.30;;;;;;;;;;4970032;28;20045;-60
2021/05/25 09:36:57;;;;;;;4.78;0.30;;;;;;;;;;4966916;28;20027;-59
2021/05/25 09:39:26;;;;;;;0.00;0.00;;;;;;;;;;4984088;28;20534;-59
2021/05/25 09:41:59;;;;;;;0.22;0.20;;;;;;;;;;4969155;28;20026;-60
2021/05/25 09:44:28;;;;;;;0.10;0.10;;;;;;;;;;4970735;28;20022;-58
2021/05/25 09:46:54;;;;;;;0.10;0.10;;;;;;;;;;4968393;28;20038;-59
2021/05/25 09:49:22;;;;;;;0.95;0.22;;;;;;;;;;4966311;28;20038;-60
2021/05/25 09:52:01;;;;;;;0.40;0.40;;;;;;;;;;4969683;28;20041;-59
2021/05/25 09:54:28;;;;;;;1.52;0.30;;;;;;;;;;4984430;28;20548;-59
2021/05/25 09:57:03;;;;;;;0.38;0.30;;;;;;;;;;4969130;28;20032;-58
2021/05/25 09:59:32;;;;;;;0.28;0.10;;;;;;;;;;4968151;28;20038;-59
2021/05/25 10:02:17;;;;;;;0.50;0.30;;;;;;;;;;4965965;28;20034;-60
2021/05/25 10:05:04;;;;;;;0.20;0.20;;;;;;;;;;4967201;28;20046;-59
2021/05/25 10:07:33;;;;;;;0.22;0.20;;;;;;;;;;4969251;28;20019;-59
2021/05/25 10:10:02;;;;;;;0.17;0.10;;;;;;;;;;4975360;28;22087;-60
2021/05/25 10:12:31;;;;;;;0.60;0.28;;;;;;;;;;4984184;28;20085;-59
2021/05/25 10:14:59;;;;;;;1.25;0.40;;;;;;;;;;4986180;28;20030;-59
2021/05/25 10:20:07;;;;;;;1.25;0.60;;;;;;;;;;4970091;28;20057;-59
2021/05/25 10:22:36;;;;;;;0.43;0.40;;;;;;;;;;4955276;28;20030;-60
2021/05/25 10:25:04;;;;;;;0.90;0.32;;;;;;;;;;4974178;28;20034;-60
2021/05/25 10:27:29;;;;;;;0.30;0.30;;;;;;;;;;4981232;28;20022;-58
2021/05/25 10:29:57;;;;;;;0.82;0.40;;;;;;;;;;4965746;28;20191;-60
2021/05/25 10:32:25;;;;;;;3.95;0.80;;;;;;;;;;4983451;28;20038;-60
2021/05/25 10:34:52;;;;;;;2.08;0.60;;;;;;;;;;4983294;28;20088;-60
2021/05/25 10:37:18;;;;;;;2.08;0.52;;;;;;;;;;4965066;28;20647;-60
2021/05/25 10:39:45;;;;;;;1.00;0.40;;;;;;;;;;4971629;28;20137;-59
2021/05/25 10:42:24;;;;;;;1.15;0.47;;;;;;;;;;4967378;28;20030;-60
2021/05/25 10:44:49;;;;;;;0.45;0.38;;;;;;;;;;4971335;28;20049;-60
2021/05/25 10:47:33;;;;;;;0.80;0.60;;;;;;;;;;4968401;28;20117;-60
2021/05/25 10:50:46;;;;;;;2.50;0.52;;;;;;;;;;4969146;28;20415;-60
2021/05/25 10:52:59;;;;;;;2.83;0.57;;;;;;;;;;4963293;28;20572;-59
2021/05/25 10:55:38;;;;;;;1.30;0.75;;;;;;;;;;4966485;28;20065;-58
2021/05/25 10:58:28;;;;;;;3.15;0.65;;;;;;;;;;4963244;28;20490;-59
2021/05/25 11:00:54;;;;;;;2.85;0.80;;;;;;;;;;4967951;28;20026;-59
2021/05/25 11:03:21;;;;;;;4.07;0.70;;;;;;;;;;4951848;28;20111;-59
2021/05/25 11:05:54;;;;;;;0.77;0.60;;;;;;;;;;4982992;28;20426;-59
2021/05/25 11:08:24;;;;;;;2.03;0.63;;;;;;;;;;4967256;28;20076;-60
2021/05/25 11:10:53;;;;;;;3.40;0.77;;;;;;;;;;4961853;28;20030;-59
2021/05/25 11:13:30;;;;;;;1.38;0.77;;;;;;;;;;4978140;28;20520;-60
2021/05/25 11:16:10;;;;;;;1.35;0.70;;;;;;;;;;4981158;28;20035;-58
2021/05/25 11:18:44;;;;;;;1.58;0.80;;;;;;;;;;4967203;28;20041;-60
2021/05/25 11:21:33;;;;;;;1.75;0.77;;;;;;;;;;4950106;28;20062;-58
2021/05/25 11:23:58;;;;;;;1.27;0.70;;;;;;;;;;4967445;28;20045;-59
2021/05/25 11:26:42;;;;;;;1.35;0.77;;;;;;;;;;4967749;28;21421;-59
2021/05/25 11:29:19;;;;;;;2.83;0.95;;;;;;;;;;4967121;28;20617;-59
2021/05/25 11:31:50;;;;;;;1.48;0.80;;;;;;;;;;4966323;28;20039;-59
2021/05/25 11:34:19;;;;;;;0.80;0.63;;;;;;;;;;4979152;28;20684;-59
2021/05/25 11:36:45;;;;;;;1.75;0.65;;;;;;;;;;4967229;28;20031;-59
2021/05/25 11:39:15;;;;;;;3.00;0.68;;;;;;;;;;4968147;28;20995;-59
2021/05/25 11:41:44;;;;;;;7.53;0.80;;;;;;;;;;4965889;28;20034;-59
2021/05/25 11:44:12;;;;;;;1.65;0.68;;;;;;;;;;4966343;28;20030;-59
2021/05/25 11:46:42;;;;;;;0.68;0.57;;;;;;;;;;4965546;28;20034;-59
2021/05/25 11:49:08;;;;;;;7.13;1.08;;;;;;;;;;4966046;28;20041;-59
2021/05/25 11:51:34;;;;;;;3.92;0.93;;;;;;;;;;4965442;28;20034;-59
2021/05/25 11:54:12;;;;;;;3.00;0.98;;;;;;;;;;4965785;28;20143;-58
2021/05/25 11:56:37;;;;;;;1.85;0.98;;;;;;;;;;4966105;28;20088;-59
2021/05/25 11:59:04;;;;;;;2.20;0.80;;;;;;;;;;4968159;28;20030;-60
2021/05/25 12:01:43;;;;;;;1.15;0.85;;;;;;;;;;4965226;28;20073;-59
2021/05/25 12:04:12;;;;;;;2.20;0.60;;;;;;;;;;4966493;28;20034;-59
2021/05/25 12:06:54;;;;;;;2.40;0.70;;;;;;;;;;4964837;28;20541;-58
2021/05/25 12:09:20;;;;;;;3.92;0.88;;;;;;;;;;4981025;28;20104;-59
2021/05/25 12:11:49;;;;;;;4.10;0.52;;;;;;;;;;4967418;28;20036;-60
2021/05/25 12:14:17;;;;;;;1.02;0.70;;;;;;;;;;4965049;28;20037;-59
2021/05/25 12:16:44;;;;;;;2.60;0.70;;;;;;;;;;4980335;28;20037;-59
2021/05/25 12:19:20;;;;;;;1.65;0.77;;;;;;;;;;4981361;28;20112;-59
2021/05/25 12:21:48;;;;;;;0.70;0.70;;;;;;;;;;4967107;28;21929;-59
2021/05/25 12:24:30;;;;;;;1.27;0.60;;;;;;;;;;4967319;28;20073;-60
2021/05/25 12:27:01;;;;;;;1.83;0.77;;;;;;;;;;4963404;28;20030;-60
2021/05/25 12:29:29;;;;;;;1.52;0.70;;;;;;;;;;4967179;28;20037;-60
2021/05/25 12:31:56;;;;;;;1.80;0.70;;;;;;;;;;4966414;28;20055;-60
2021/05/25 12:34:22;;;;;;;3.28;0.80;;;;;;;;;;4966558;28;20725;-60
2021/05/25 12:37:08;;;;;;;3.10;0.77;;;;;;;;;;4964512;28;20034;-60
2021/05/25 12:39:41;;;;;;;2.22;0.82;;;;;;;;;;4980451;28;20045;-60
2021/05/25 12:42:16;;;;;;;1.02;0.80;;;;;;;;;;4965882;28;20026;-58
2021/05/25 12:44:45;;;;;;;3.25;0.85;;;;;;;;;;4964829;28;20054;-60
2021/05/25 12:47:15;;;;;;;3.35;1.13;;;;;;;;;;4966184;28;20030;-59
2021/05/25 12:49:43;;;;;;;2.13;0.75;;;;;;;;;;4979154;28;20036;-60
2021/05/25 12:52:25;;;;;;;2.80;1.17;;;;;;;;;;4971366;28;20489;-60
2021/05/25 12:54:54;;;;;;;4.13;1.05;;;;;;;;;;4971589;28;20045;-60
2021/05/25 12:57:22;;;;;;;1.38;0.55;;;;;;;;;;4958894;28;20054;-59
2021/05/25 12:59:58;;;;;;;1.38;0.68;;;;;;;;;;4969260;28;20038;-60
2021/05/25 13:02:46;;;;;;;5.43;1.25;;;;;;;;;;4967785;28;20109;-61
2021/05/25 13:05:13;;;;;;;4.35;1.13;;;;;;;;;;4968246;28;20038;-61
2021/05/25 13:07:52;;;;;;;1.33;0.68;;;;;;;;;;4968555;28;20042;-60
2021/05/25 13:10:26;;;;;;;2.05;0.57;;;;;;;;;;4981555;28;20421;-60
2021/05/25 13:12:55;;;;;;;2.78;0.88;;;;;;;;;;4964037;28;20108;-59
2021/05/25 13:15:39;;;;;;;6.22;1.17;;;;;;;;;;4970194;28;20355;-61
2021/05/25 13:18:10;;;;;;;1.20;0.70;;;;;;;;;;4966604;28;20031;-61
2021/05/25 13:20:39;;;;;;;1.23;0.50;;;;;;;;;;4969929;28;20398;-61
2021/05/25 13:23:28;;;;;;;0.70;0.60;;;;;;;;;;4969778;28;20049;-60
2021/05/25 13:26:03;;;;;;;2.03;0.63;;;;;;;;;;4969355;28;20030;-61
2021/05/25 13:28:51;;;;;;;3.13;0.60;;;;;;;;;;4968407;28;20027;-61
2021/05/25 13:31:21;;;;;;;0.77;0.30;;;;;;;;;;4981829;28;20031;-62
2021/05/25 13:33:48;;;;;;;2.08;0.57;;;;;;;;;;4968307;28;20034;-61
2021/05/25 13:36:14;;;;;;;0.95;0.40;;;;;;;;;;4968453;28;20030;-61
2021/05/25 13:38:41;;;;;;;1.65;0.47;;;;;;;;;;4967639;28;20161;-60
2021/05/25 13:41:09;;;;;;;0.30;0.30;;;;;;;;;;4969854;28;20069;-60
2021/05/25 13:43:35;;;;;;;2.05;0.52;;;;;;;;;;4963516;28;20038;-62
2021/05/25 13:46:02;;;;;;;2.83;0.60;;;;;;;;;;4965739;28;20084;-62
2021/05/25 13:48:27;;;;;;;0.70;0.50;;;;;;;;;;4968059;28;20138;-61
2021/05/25 13:51:01;;;;;;;5.28;0.90;;;;;;;;;;4977997;28;20118;-61
2021/05/25 13:53:27;;;;;;;1.83;0.80;;;;;;;;;;4981899;28;20387;-62
2021/05/25 13:55:55;;;;;;;1.60;0.90;;;;;;;;;;4967020;28;20224;-59
2021/05/25 13:58:28;;;;;;;4.18;0.85;;;;;;;;;;4964476;28;20065;-60
2021/05/25 14:03:20;;;;;;;3.25;0.60;;;;;;;;;;4965830;28;20125;-60
2021/05/25 14:05:50;;;;;;;2.47;0.45;;;;;;;;;;4968739;28;20509;-61
2021/05/25 14:08:18;;;;;;;3.78;0.80;;;;;;;;;;4983667;28;20032;-59
2021/05/25 14:10:48;;;;;;;1.98;0.50;;;;;;;;;;4960921;28;20039;-59
2021/05/25 14:13:19;;;;;;;17.88;1.45;;;;;;;;;;4966259;28;20232;-60
2021/05/25 14:15:45;;;;;;;2.28;0.82;;;;;;;;;;4963306;28;20038;-60
2021/05/25 14:18:12;;;;;;;10.80;1.02;;;;;;;;;;4974923;28;20038;-60
2021/05/25 14:20:40;;;;;;;2.92;0.98;;;;;;;;;;4967872;28;20076;-60
2021/05/25 14:23:07;;;;;;;4.20;1.00;;;;;;;;;;4966875;28;20303;-60
2021/05/25 14:25:32;;;;;;;3.80;1.48;;;;;;;;;;4969261;28;20030;-60
2021/05/25 14:27:58;;;;;;;22.15;1.67;;;;;;;;;;4950613;28;20100;-61
2021/05/25 14:30:24;;;;;;;16.30;1.60;;;;;;;;;;4963226;28;20595;-64
2021/05/25 14:32:51;;;;;;;2.80;1.30;;;;;;;;;;4949674;28;20115;-64
2021/05/25 14:35:20;;;;;;;5.63;1.48;;;;;;;;;;4967987;28;20818;-63
2021/05/25 14:37:46;;;;;;;2.78;1.40;;;;;;;;;;4966733;28;20026;-63
2021/05/25 14:40:15;;;;;;;1.65;1.13;;;;;;;;;;4966875;28;20887;-62
2021/05/25 14:42:40;;;;;;;9.35;1.25;;;;;;;;;;4933278;28;20053;-62
2021/05/25 14:45:09;;;;;;;2.75;1.27;;;;;;;;;;4965052;28;20114;-61
2021/05/25 14:47:35;;;;;;;2.72;1.73;;;;;;;;;;4946554;28;20165;-60
2021/05/25 14:50:21;;;;;;;4.35;0.88;;;;;;;;;;4981751;28;22033;-61
2021/05/25 14:52:46;;;;;;;;;;;;;;;;;;4982435;28;23103;-60
2021/05/25 14:55:16;;;;;;;3.03;1.10;;;;;;;;;;4981717;28;19914;-60
2021/05/25 14:57:45;;;;;;;2.72;1.08;;;;;;;;;;4963214;28;20025;-61
2021/05/25 15:00:12;;;;;;;5.53;1.40;;;;;;;;;;4962670;28;20109;-60